Time;durP1;ratioP1;P1;durP2;ratioP2;P2;SDS_P1;SDS_P2;PMS_P1;PMS_P2;Temp;Humidity;BMP_temperature;BMP_pressure;BME280_temperature;BME280_humidity;BME280_pressure;Samples;Min_cycle;Max_cycle;Signal;HPM_P1;HPM_P2
2022/08/04 00:00:11;;;;;;;1.65;1.55;;;24.90;66.40;;;;;;4853858;29;20429;-84
2022/08/04 00:02:56;;;;;;;1.20;1.10;;;24.80;67.20;;;;;;4849018;29;20427;-81
2022/08/04 00:05:23;;;;;;;1.50;1.40;;;24.80;67.60;;;;;;4861413;29;20430;-84
2022/08/04 00:08:20;;;;;;;1.60;1.40;;;24.70;68.10;;;;;;4882616;29;20433;-79
2022/08/04 00:10:54;;;;;;;1.63;1.52;;;24.70;68.50;;;;;;4867530;29;20483;-81
2022/08/04 00:13:23;;;;;;;1.60;1.50;;;24.70;68.80;;;;;;4858868;29;20435;-83
2022/08/04 00:15:56;;;;;;;1.33;1.23;;;24.70;68.90;;;;;;4876087;29;20431;-81
2022/08/04 00:18:29;;;;;;;2.58;1.60;;;24.70;69.00;;;;;;4875983;29;20439;-81
2022/08/04 00:21:02;;;;;;;1.35;1.25;;;24.70;69.20;;;;;;4876621;29;20424;-81
2022/08/04 00:23:34;;;;;;;1.60;1.50;;;24.60;68.90;;;;;;4867002;29;20421;-81
2022/08/04 00:26:22;;;;;;;1.50;1.13;;;24.60;68.60;;;;;;4867019;29;20448;-81
2022/08/04 00:28:52;;;;;;;1.55;1.45;;;24.60;68.40;;;;;;4872868;29;20435;-80
2022/08/04 00:31:20;;;;;;;1.40;1.30;;;24.60;68.40;;;;;;4864980;29;20425;-81
2022/08/04 00:34:12;;;;;;;1.50;1.40;;;24.60;68.90;;;;;;4868385;29;20500;-81
2022/08/04 00:36:42;;;;;;;1.60;1.50;;;24.50;69.40;;;;;;4875296;29;20426;-81
2022/08/04 00:39:12;;;;;;;1.65;1.55;;;24.50;69.80;;;;;;4867138;29;20431;-84
2022/08/04 00:42:12;;;;;;;1.65;1.33;;;24.40;69.80;;;;;;4856378;29;20446;-84
2022/08/04 00:44:58;;;;;;;1.60;1.30;;;24.50;69.60;;;;;;4863664;29;20416;-83
2022/08/04 00:47:45;;;;;;;1.30;1.20;;;24.40;69.20;;;;;;4846263;29;20433;-84
2022/08/04 00:50:38;;;;;;;2.30;1.27;;;24.40;68.90;;;;;;4848732;29;20433;-84
2022/08/04 00:53:06;;;;;;;1.60;1.50;;;24.40;68.60;;;;;;4842617;29;20415;-83
2022/08/04 00:55:51;;;;;;;1.40;1.30;;;24.40;67.60;;;;;;4857582;29;20465;-80
2022/08/04 00:58:47;;;;;;;1.50;1.20;;;24.40;65.60;;;;;;4879561;29;20755;-83
2022/08/04 01:01:39;;;;;;;1.70;1.30;;;24.50;64.10;;;;;;4871007;29;20436;-84
2022/08/04 01:04:24;;;;;;;1.20;1.10;;;24.50;62.00;;;;;;4862965;29;20440;-80
2022/08/04 01:07:26;;;;;;;1.60;1.10;;;24.60;60.40;;;;;;4847314;29;20462;-81
2022/08/04 01:10:21;;;;;;;1.40;1.30;;;24.70;59.10;;;;;;4848675;29;20418;-84
2022/08/04 01:13:07;;;;;;;1.17;1.00;;;24.80;58.80;;;;;;4858712;29;20449;-81
2022/08/04 01:16:04;;;;;;;1.97;1.23;;;24.90;57.80;;;;;;4869274;29;20441;-84
2022/08/04 01:18:49;;;;;;;1.13;1.00;;;25.00;57.20;;;;;;4859371;29;20470;-79
2022/08/04 01:21:43;;;;;;;1.85;1.30;;;25.10;56.70;;;;;;4876061;29;20428;-84
2022/08/04 01:24:38;;;;;;;1.50;1.17;;;25.20;56.30;;;;;;4864120;29;20425;-83
2022/08/04 01:27:23;;;;;;;3.25;1.40;;;25.20;56.00;;;;;;4868030;29;20456;-81
2022/08/04 01:29:57;;;;;;;1.05;0.98;;;25.20;55.80;;;;;;4869244;29;20481;-84
2022/08/04 01:32:39;;;;;;;1.25;1.00;;;25.30;55.50;;;;;;4864829;29;20489;-80
2022/08/04 01:35:15;;;;;;;1.40;1.27;;;25.30;55.40;;;;;;4860851;29;20465;-81
2022/08/04 01:38:12;;;;;;;1.13;1.00;;;25.40;55.20;;;;;;4880243;29;20450;-84
2022/08/04 01:40:49;;;;;;;2.53;1.15;;;25.40;55.10;;;;;;4861162;29;20430;-80
2022/08/04 01:43:16;;;;;;;1.52;1.00;;;25.40;55.10;;;;;;4888377;29;20460;-84
2022/08/04 01:45:48;;;;;;;1.17;0.98;;;25.40;55.30;;;;;;4861136;29;20443;-81
2022/08/04 01:48:21;;;;;;;1.75;1.20;;;25.30;55.20;;;;;;4883879;29;20488;-81
2022/08/04 01:50:52;;;;;;;1.35;1.02;;;25.30;56.00;;;;;;4868808;29;20780;-84
2022/08/04 01:53:20;;;;;;;0.80;0.80;;;25.30;54.80;;;;;;4875170;29;20485;-81
2022/08/04 01:55:53;;;;;;;2.00;1.30;;;25.30;54.80;;;;;;4860575;29;20426;-83
2022/08/04 01:58:23;;;;;;;1.10;1.00;;;25.30;54.80;;;;;;4869296;29;20427;-80
2022/08/04 02:01:05;;;;;;;1.63;1.13;;;25.40;54.80;;;;;;4872321;29;20427;-82
2022/08/04 02:03:37;;;;;;;1.05;0.95;;;25.30;54.80;;;;;;4861360;29;20413;-84
2022/08/04 02:06:48;;;;;;;1.05;0.95;;;25.30;54.80;;;;;;4859056;29;20426;-83
2022/08/04 02:09:27;;;;;;;2.30;1.27;;;25.20;56.50;;;;;;4873194;29;20423;-83
2022/08/04 02:12:14;;;;;;;1.70;1.30;;;25.20;58.20;;;;;;4867687;29;20429;-81
2022/08/04 02:14:55;;;;;;;1.50;1.40;;;25.00;59.60;;;;;;4856348;29;20823;-84
2022/08/04 02:17:30;;;;;;;1.77;1.20;;;24.80;60.60;;;;;;4860604;29;20485;-83
2022/08/04 02:20:05;;;;;;;1.30;1.20;;;24.80;61.00;;;;;;4856106;29;20897;-84
2022/08/04 02:22:42;;;;;;;1.80;1.00;;;24.60;61.70;;;;;;4866481;29;20978;-83
2022/08/04 02:25:11;;;;;;;1.23;1.05;;;24.50;62.10;;;;;;4874045;29;20809;-84
2022/08/04 02:28:12;;;;;;;1.23;1.13;;;24.50;62.60;;;;;;4856056;29;20494;-80
2022/08/04 02:30:52;;;;;;;1.10;1.02;;;24.40;62.50;;;;;;4856298;29;20422;-84
2022/08/04 02:33:25;;;;;;;1.50;1.40;;;24.40;62.50;;;;;;4859184;29;20511;-80
2022/08/04 02:35:59;;;;;;;1.60;1.50;;;24.40;62.40;;;;;;4884853;29;20916;-80
2022/08/04 02:39:02;;;;;;;1.70;1.60;;;24.40;61.10;;;;;;4863356;29;20464;-80
2022/08/04 02:41:30;;;;;;;1.33;1.23;;;24.40;59.20;;;;;;4847695;29;20427;-83
2022/08/04 02:44:02;;;;;;;2.10;1.42;;;24.50;58.70;;;;;;4876746;29;20565;-80
2022/08/04 02:46:32;;;;;;;2.70;1.20;;;24.50;59.80;;;;;;4866028;29;20490;-83
2022/08/04 02:49:03;;;;;;;1.38;1.27;;;24.40;60.60;;;;;;4869591;29;20422;-83
2022/08/04 02:51:34;;;;;;;1.20;1.10;;;24.40;61.30;;;;;;4864105;29;20425;-82
2022/08/04 02:54:03;;;;;;;1.27;1.20;;;24.20;61.80;;;;;;4852409;29;20507;-80
2022/08/04 02:56:33;;;;;;;1.30;1.20;;;24.20;62.20;;;;;;4854019;29;20426;-82
2022/08/04 02:59:10;;;;;;;1.30;1.15;;;24.20;62.60;;;;;;4863315;29;20845;-82
2022/08/04 03:01:38;;;;;;;1.33;1.15;;;24.10;62.80;;;;;;4866775;29;20427;-80
2022/08/04 03:04:35;;;;;;;1.33;1.20;;;24.10;63.40;;;;;;4867006;29;20425;-80
2022/08/04 03:07:24;;;;;;;1.30;1.20;;;24.00;64.90;;;;;;4874911;29;20481;-82
2022/08/04 03:10:21;;;;;;;1.40;1.30;;;24.00;64.90;;;;;;4879089;29;20416;-83
2022/08/04 03:13:01;;;;;;;1.48;1.38;;;23.90;65.60;;;;;;4862702;29;20454;-83
2022/08/04 03:16:07;;;;;;;2.00;1.50;;;23.80;66.30;;;;;;4861552;29;21047;-82
2022/08/04 03:18:53;;;;;;;1.50;1.40;;;23.60;66.80;;;;;;4872310;29;20468;-81
2022/08/04 03:21:32;;;;;;;1.70;1.60;;;23.60;67.40;;;;;;4862071;29;20588;-84
2022/08/04 03:24:16;;;;;;;1.60;1.50;;;23.50;67.80;;;;;;4854220;29;20451;-84
2022/08/04 03:27:07;;;;;;;1.83;1.45;;;23.40;68.00;;;;;;4867021;29;20850;-80
2022/08/04 03:30:04;;;;;;;1.60;1.50;;;23.40;68.30;;;;;;4854391;29;20427;-81
2022/08/04 03:33:13;;;;;;;1.65;1.50;;;23.40;68.60;;;;;;4868074;29;20428;-82
2022/08/04 03:35:59;;;;;;;1.63;1.52;;;23.30;69.00;;;;;;4862527;29;20433;-80
2022/08/04 03:39:09;;;;;;;1.33;1.23;;;23.30;68.90;;;;;;4875953;29;20437;-82
2022/08/04 03:42:07;;;;;;;1.77;1.40;;;23.30;68.10;;;;;;4882144;29;20505;-82
2022/08/04 03:44:42;;;;;;;1.80;1.37;;;23.40;66.70;;;;;;4883840;29;20487;-84
2022/08/04 03:47:19;;;;;;;1.33;1.20;;;23.50;63.70;;;;;;4863744;29;20426;-81
2022/08/04 03:50:05;;;;;;;1.55;1.42;;;23.60;62.60;;;;;;4879626;29;20415;-80
2022/08/04 03:55:54;;;;;;;1.37;1.20;;;24.00;60.20;;;;;;4864162;29;20427;-80
2022/08/04 03:58:35;;;;;;;1.60;1.50;;;24.10;60.50;;;;;;4887338;29;20411;-80
2022/08/04 04:01:35;;;;;;;1.85;1.50;;;24.20;59.00;;;;;;4878165;29;20880;-84
2022/08/04 04:04:50;;;;;;;2.15;1.45;;;24.30;58.70;;;;;;4866612;29;20415;-80
2022/08/04 04:07:43;;;;;;;1.60;1.10;;;24.30;58.40;;;;;;4876324;29;20461;-80
2022/08/04 04:10:46;;;;;;;1.60;1.48;;;24.40;59.20;;;;;;4870482;29;20514;-84
2022/08/04 04:13:28;;;;;;;2.20;1.70;;;24.40;58.30;;;;;;4866308;29;20470;-84
2022/08/04 04:16:13;;;;;;;1.15;1.05;;;24.40;58.10;;;;;;4882173;29;20842;-80
2022/08/04 04:19:01;;;;;;;1.98;1.50;;;24.40;57.90;;;;;;4875739;29;20450;-83
2022/08/04 04:21:46;;;;;;;3.20;1.30;;;24.40;57.80;;;;;;4863813;29;20462;-83
2022/08/04 04:24:44;;;;;;;1.80;1.40;;;24.40;58.00;;;;;;4884073;29;20971;-80
2022/08/04 04:27:59;;;;;;;1.42;1.13;;;24.40;58.10;;;;;;4856732;29;20907;-83
2022/08/04 04:31:07;;;;;;;2.53;1.20;;;24.40;58.20;;;;;;4880585;29;20424;-83
2022/08/04 04:33:57;;;;;;;1.48;1.38;;;24.30;58.50;;;;;;4863733;29;20450;-80
2022/08/04 04:37:18;;;;;;;1.70;1.38;;;24.30;58.70;;;;;;4866389;29;20986;-83
2022/08/04 04:39:55;;;;;;;2.25;1.50;;;24.30;59.00;;;;;;4825340;29;20434;-80
2022/08/04 04:42:37;;;;;;;2.63;1.80;;;24.30;59.00;;;;;;4872707;29;20493;-83
2022/08/04 04:45:37;;;;;;;2.22;1.60;;;24.30;58.90;;;;;;4881375;29;20412;-83
2022/08/04 04:48:46;;;;;;;1.90;1.63;;;24.30;58.70;;;;;;4884752;29;20817;-80
2022/08/04 04:51:59;;;;;;;2.50;1.40;;;24.40;58.50;;;;;;4864635;29;20410;-80
2022/08/04 04:54:48;;;;;;;1.77;1.38;;;24.40;58.20;;;;;;4862881;29;20816;-83
2022/08/04 04:57:18;;;;;;;3.25;1.40;;;24.50;58.00;;;;;;4859411;29;20481;-82
2022/08/04 05:00:08;;;;;;;1.77;1.40;;;24.60;57.40;;;;;;4867046;29;20457;-83
2022/08/04 05:02:44;;;;;;;1.60;1.50;;;24.70;57.20;;;;;;4862940;29;20869;-83
2022/08/04 05:05:20;;;;;;;1.60;1.50;;;24.70;56.80;;;;;;4863179;29;20453;-83
2022/08/04 05:08:05;;;;;;;1.60;1.20;;;24.80;56.50;;;;;;4861630;29;20426;-83
2022/08/04 05:11:18;;;;;;;1.45;1.27;;;24.90;56.30;;;;;;4855739;29;20450;-83
2022/08/04 05:13:49;;;;;;;2.05;1.30;;;25.00;56.10;;;;;;4867384;29;20426;-79
2022/08/04 05:16:58;;;;;;;1.90;1.08;;;25.00;55.90;;;;;;4871390;29;20420;-83
2022/08/04 05:19:31;;;;;;;1.30;1.17;;;25.10;55.70;;;;;;4856719;29;20437;-82
2022/08/04 05:22:04;;;;;;;2.00;1.30;;;25.20;56.00;;;;;;4856163;29;20475;-80
2022/08/04 05:24:41;;;;;;;1.53;1.30;;;25.20;56.50;;;;;;4875745;29;20471;-82
2022/08/04 05:27:21;;;;;;;2.30;1.60;;;25.20;56.80;;;;;;4837797;29;20423;-83
2022/08/04 05:29:59;;;;;;;2.40;1.30;;;25.20;56.80;;;;;;4875626;29;20526;-83
2022/08/04 05:32:31;;;;;;;1.40;1.20;;;25.20;56.30;;;;;;4865660;29;20499;-84
2022/08/04 05:35:04;;;;;;;2.80;1.20;;;25.30;55.90;;;;;;4863192;29;20868;-83
2022/08/04 05:37:33;;;;;;;1.30;1.20;;;25.30;55.40;;;;;;4869149;29;20475;-81
2022/08/04 05:40:04;;;;;;;2.58;1.30;;;25.30;55.10;;;;;;4860162;29;20484;-81
2022/08/04 05:42:34;;;;;;;2.28;1.58;;;25.40;55.00;;;;;;4857516;29;20489;-81
2022/08/04 05:45:02;;;;;;;2.17;1.60;;;25.40;54.40;;;;;;4858006;29;20425;-84
2022/08/04 05:47:32;;;;;;;3.43;1.60;;;25.50;53.90;;;;;;4863022;29;20556;-81
2022/08/04 05:50:01;;;;;;;3.28;1.65;;;25.60;55.20;;;;;;4870132;29;20437;-83
2022/08/04 05:52:33;;;;;;;1.40;1.30;;;25.70;54.30;;;;;;4858255;29;20437;-82
2022/08/04 05:55:01;;;;;;;2.10;1.77;;;25.70;54.20;;;;;;4863728;29;20429;-81
2022/08/04 05:57:29;;;;;;;1.60;1.50;;;25.80;53.80;;;;;;4859501;29;20433;-81
2022/08/04 05:59:58;;;;;;;1.85;1.20;;;25.80;53.70;;;;;;4866709;29;20425;-82
2022/08/04 06:02:29;;;;;;;2.17;1.55;;;25.90;53.90;;;;;;4855804;29;20431;-83
2022/08/04 06:04:58;;;;;;;2.00;1.30;;;25.90;53.70;;;;;;4861369;29;20495;-83
2022/08/04 06:07:25;;;;;;;1.70;1.27;;;26.00;53.90;;;;;;4860951;29;20491;-81
2022/08/04 06:09:52;;;;;;;2.30;1.30;;;26.10;53.10;;;;;;4857507;29;20435;-81
2022/08/04 06:12:26;;;;;;;3.35;1.55;;;26.10;53.20;;;;;;4868221;29;20429;-81
2022/08/04 06:14:55;;;;;;;1.77;1.30;;;26.20;53.30;;;;;;4867063;29;20845;-82
2022/08/04 06:17:31;;;;;;;1.40;1.10;;;26.20;53.30;;;;;;4867681;29;20442;-83
2022/08/04 06:20:19;;;;;;;3.00;1.50;;;26.30;53.30;;;;;;4854846;29;20441;-83
2022/08/04 06:22:54;;;;;;;1.67;1.50;;;26.30;52.80;;;;;;4863539;29;20427;-82
2022/08/04 06:25:24;;;;;;;2.45;1.67;;;26.30;52.60;;;;;;4856287;29;20516;-81
2022/08/04 06:27:52;;;;;;;1.50;1.40;;;26.30;52.40;;;;;;4853935;29;20429;-83
2022/08/04 06:30:24;;;;;;;1.95;1.40;;;26.30;52.60;;;;;;4856520;29;20477;-83
2022/08/04 06:32:56;;;;;;;2.17;1.40;;;26.30;52.50;;;;;;4861052;29;20437;-81
2022/08/04 06:35:31;;;;;;;2.30;1.60;;;26.20;52.40;;;;;;4858888;29;20501;-81
2022/08/04 06:37:59;;;;;;;2.80;1.58;;;26.20;52.60;;;;;;4853957;29;20433;-81
2022/08/04 06:40:29;;;;;;;2.13;1.70;;;26.20;52.40;;;;;;4876911;29;20770;-78
2022/08/04 06:43:09;;;;;;;1.57;1.47;;;26.20;52.00;;;;;;4864134;29;20420;-80
2022/08/04 06:45:38;;;;;;;2.70;1.50;;;26.20;52.50;;;;;;4853329;29;20410;-82
2022/08/04 06:48:06;;;;;;;1.88;1.58;;;26.10;52.40;;;;;;4849318;29;20429;-81
2022/08/04 06:50:34;;;;;;;1.83;1.50;;;26.20;52.50;;;;;;4846469;29;20434;-81
2022/08/04 06:53:22;;;;;;;2.30;1.60;;;26.20;52.50;;;;;;4837054;29;20981;-81
2022/08/04 06:55:50;;;;;;;2.63;1.38;;;26.30;52.50;;;;;;4850803;29;21081;-83
2022/08/04 06:58:20;;;;;;;1.70;1.60;;;26.40;52.30;;;;;;4849293;29;20426;-83
2022/08/04 07:00:48;;;;;;;3.08;1.55;;;26.50;52.00;;;;;;4858421;29;20434;-81
2022/08/04 07:03:17;;;;;;;2.58;1.45;;;26.60;52.20;;;;;;4866192;29;20436;-80
2022/08/04 07:05:46;;;;;;;2.42;1.23;;;26.70;52.50;;;;;;4858213;29;20437;-83
2022/08/04 07:08:14;;;;;;;3.20;1.58;;;26.90;52.40;;;;;;4846492;29;20519;-81
2022/08/04 07:10:41;;;;;;;2.15;1.50;;;27.00;52.10;;;;;;4864067;29;20416;-81
2022/08/04 07:13:09;;;;;;;3.17;1.30;;;27.20;50.90;;;;;;4885304;29;20447;-82
2022/08/04 07:15:40;;;;;;;3.00;1.58;;;27.30;50.60;;;;;;4848273;29;20915;-82
2022/08/04 07:18:07;;;;;;;2.20;1.63;;;27.40;50.40;;;;;;4852194;29;20834;-81
2022/08/04 07:20:34;;;;;;;2.30;1.38;;;27.50;50.20;;;;;;4863022;29;20414;-80
2022/08/04 07:23:06;;;;;;;2.13;1.47;;;27.60;50.00;;;;;;4868932;29;20421;-82
2022/08/04 07:25:35;;;;;;;2.08;1.52;;;27.70;50.60;;;;;;4885086;29;20420;-82
2022/08/04 07:28:24;;;;;;;3.22;1.40;;;27.80;50.00;;;;;;4870855;29;20803;-84
2022/08/04 07:30:52;;;;;;;1.90;1.20;;;28.00;49.40;;;;;;4884063;29;20410;-83
2022/08/04 07:33:20;;;;;;;1.95;1.50;;;28.10;49.20;;;;;;4868234;29;20781;-82
2022/08/04 07:35:51;;;;;;;2.97;1.55;;;28.30;48.50;;;;;;4869822;29;20425;-84
2022/08/04 07:38:41;;;;;;;2.17;1.63;;;28.40;48.70;;;;;;4864726;29;20818;-83
2022/08/04 07:41:23;;;;;;;1.73;1.50;;;28.60;48.80;;;;;;4863836;29;20481;-83
2022/08/04 07:44:07;;;;;;;2.90;1.10;;;28.80;48.40;;;;;;4855962;29;20470;-83
2022/08/04 07:46:37;;;;;;;1.10;1.00;;;29.00;47.20;;;;;;4859820;29;20428;-83
2022/08/04 07:49:05;;;;;;;1.58;1.13;;;29.10;46.20;;;;;;4853696;29;20918;-83
2022/08/04 07:51:34;;;;;;;1.75;1.10;;;29.30;45.60;;;;;;4862019;29;20437;-83
2022/08/04 07:54:03;;;;;;;1.00;0.90;;;29.40;45.60;;;;;;4862468;29;20421;-82
2022/08/04 07:56:32;;;;;;;1.58;1.00;;;29.60;45.70;;;;;;4861478;29;20444;-84
2022/08/04 07:59:00;;;;;;;0.93;0.88;;;29.80;44.30;;;;;;4873778;29;20411;-83
2022/08/04 08:01:28;;;;;;;1.10;0.80;;;30.00;43.50;;;;;;4869795;29;20822;-83
2022/08/04 08:03:57;;;;;;;1.90;0.98;;;30.10;43.50;;;;;;4869221;29;20427;-82
2022/08/04 08:06:24;;;;;;;1.80;1.10;;;30.30;43.10;;;;;;4879453;29;20456;-82
2022/08/04 08:09:05;;;;;;;2.95;0.98;;;30.40;42.40;;;;;;4864617;29;20497;-81
2022/08/04 08:11:45;;;;;;;6.50;1.60;;;30.50;42.40;;;;;;4850876;29;20422;-86
2022/08/04 08:14:34;;;;;;;1.45;1.00;;;30.60;43.60;;;;;;4851180;29;20434;-83
2022/08/04 08:17:02;;;;;;;2.42;1.25;;;30.70;43.70;;;;;;4874139;29;20455;-83
2022/08/04 08:19:33;;;;;;;2.60;0.90;;;30.80;43.50;;;;;;4868611;29;20499;-86
2022/08/04 08:22:01;;;;;;;2.22;1.40;;;30.90;42.90;;;;;;4874212;29;20416;-87
2022/08/04 08:24:34;;;;;;;2.83;1.35;;;31.00;42.30;;;;;;4869517;29;20778;-83
2022/08/04 08:27:03;;;;;;;4.95;1.23;;;31.10;42.60;;;;;;4860892;29;20421;-81
2022/08/04 08:29:33;;;;;;;3.05;1.60;;;31.10;41.00;;;;;;4872852;29;20922;-83
2022/08/04 08:32:01;;;;;;;1.88;1.05;;;31.10;41.80;;;;;;4865564;29;20423;-84
2022/08/04 08:34:35;;;;;;;7.35;1.92;;;31.30;41.80;;;;;;4859751;29;20476;-83
2022/08/04 08:37:37;;;;;;;3.78;1.20;;;31.40;41.60;;;;;;4860895;29;20440;-80
2022/08/04 08:40:32;;;;;;;1.25;0.70;;;31.60;41.30;;;;;;4862413;29;20502;-83
2022/08/04 08:43:22;;;;;;;2.88;1.20;;;31.70;40.20;;;;;;4846154;29;20423;-87
2022/08/04 08:46:24;;;;;;;2.60;1.00;;;31.70;40.60;;;;;;4866393;29;20854;-84
2022/08/04 08:49:27;;;;;;;3.60;1.00;;;31.90;41.30;;;;;;4868104;29;20932;-83
2022/08/04 08:52:45;;;;;;;1.70;1.02;;;32.00;40.90;;;;;;4852579;29;20483;-86
2022/08/04 08:56:13;;;;;;;1.40;0.70;;;32.20;40.00;;;;;;4867952;29;20502;-84
2022/08/04 08:58:59;;;;;;;1.58;0.70;;;32.30;40.60;;;;;;4856363;29;20453;-86
2022/08/04 09:01:32;;;;;;;1.00;0.63;;;32.30;39.30;;;;;;4870274;29;20465;-81
2022/08/04 09:04:21;;;;;;;1.30;0.50;;;32.40;38.90;;;;;;4866135;29;20437;-84
2022/08/04 09:07:23;;;;;;;1.42;0.70;;;32.50;38.40;;;;;;4853148;29;20421;-80
2022/08/04 09:09:55;;;;;;;1.75;0.65;;;32.60;38.30;;;;;;4867954;29;20449;-86
2022/08/04 09:12:47;;;;;;;1.30;0.68;;;32.90;38.70;;;;;;4870651;29;20425;-84
2022/08/04 09:15:15;;;;;;;5.78;1.02;;;33.00;38.60;;;;;;4855486;29;20429;-84
2022/08/04 09:18:01;;;;;;;1.17;0.68;;;33.10;38.20;;;;;;4868928;29;20834;-85
2022/08/04 09:20:30;;;;;;;3.03;0.90;;;33.20;37.10;;;;;;4855897;29;20430;-86
2022/08/04 09:23:06;;;;;;;2.80;0.77;;;33.20;37.30;;;;;;4860293;29;20428;-81
2022/08/04 09:26:04;;;;;;;1.42;0.70;;;33.30;37.60;;;;;;4855904;29;20417;-82
2022/08/04 09:28:43;;;;;;;2.13;0.70;;;33.30;36.70;;;;;;4858121;29;20413;-80
2022/08/04 09:31:27;;;;;;;1.60;0.80;;;33.40;36.00;;;;;;4851950;29;20436;-81
2022/08/04 09:34:38;;;;;;;1.40;0.70;;;33.40;35.20;;;;;;4851833;29;20517;-85
2022/08/04 09:37:25;;;;;;;0.82;0.60;;;33.30;35.70;;;;;;4841372;29;20447;-81
2022/08/04 09:40:25;;;;;;;2.33;0.70;;;33.30;35.80;;;;;;4853863;29;20427;-83
2022/08/04 09:43:51;;;;;;;1.05;0.60;;;33.40;35.50;;;;;;4855683;29;20502;-84
2022/08/04 09:46:50;;;;;;;5.63;0.90;;;33.50;36.00;;;;;;4850497;29;20509;-85
2022/08/04 09:49:26;;;;;;;1.80;0.77;;;33.70;35.40;;;;;;4858954;29;20515;-80
2022/08/04 09:52:27;;;;;;;1.50;0.60;;;33.80;34.90;;;;;;4856286;29;20430;-82
2022/08/04 09:55:33;;;;;;;1.23;0.57;;;33.80;33.70;;;;;;4841588;29;20793;-84
2022/08/04 09:58:10;;;;;;;1.15;0.50;;;33.80;33.10;;;;;;4849824;29;20489;-82
2022/08/04 10:00:47;;;;;;;1.53;0.70;;;34.00;34.00;;;;;;4852409;29;20469;-82
2022/08/04 10:03:15;;;;;;;0.75;0.50;;;34.10;32.80;;;;;;4868307;29;20482;-80
2022/08/04 10:06:18;;;;;;;1.70;0.53;;;34.10;33.60;;;;;;4845606;29;20439;-82
2022/08/04 10:08:59;;;;;;;1.23;0.50;;;34.20;33.00;;;;;;4866706;29;20528;-87
2022/08/04 10:11:42;;;;;;;0.60;0.40;;;34.30;33.50;;;;;;4848397;29;20431;-82
2022/08/04 10:15:18;;;;;;;1.17;0.40;;;34.40;32.80;;;;;;4841530;29;20527;-85
2022/08/04 10:18:19;;;;;;;3.30;0.80;;;34.60;32.70;;;;;;4818940;29;20427;-84
2022/08/04 10:21:00;;;;;;;2.10;0.60;;;34.50;32.10;;;;;;4811392;29;20906;-84
2022/08/04 10:23:37;;;;;;;2.15;0.50;;;34.40;32.80;;;;;;4830157;29;20505;-82
2022/08/04 10:26:45;;;;;;;2.42;0.65;;;34.50;32.40;;;;;;4848392;29;20932;-84
2022/08/04 10:29:29;;;;;;;1.45;0.55;;;34.50;32.80;;;;;;4851328;29;20510;-86
2022/08/04 10:32:02;;;;;;;1.40;0.60;;;34.50;32.20;;;;;;4863274;29;20429;-82
2022/08/04 10:34:53;;;;;;;1.98;0.70;;;34.40;31.80;;;;;;4872637;29;20428;-80
2022/08/04 10:37:27;;;;;;;0.57;0.50;;;34.40;32.30;;;;;;4852982;29;20425;-80
2022/08/04 10:40:36;;;;;;;1.02;0.65;;;34.40;32.80;;;;;;4848002;29;20523;-83
2022/08/04 10:43:30;;;;;;;1.63;0.65;;;34.60;32.10;;;;;;4868271;29;20462;-86
2022/08/04 10:46:04;;;;;;;1.00;0.70;;;34.80;32.10;;;;;;4847518;29;20510;-82
2022/08/04 10:48:50;;;;;;;0.85;0.60;;;34.90;32.50;;;;;;4869222;29;20831;-81
2022/08/04 10:51:26;;;;;;;2.67;0.70;;;35.00;31.70;;;;;;4870300;29;20829;-87
2022/08/04 10:54:00;;;;;;;1.35;0.60;;;35.10;31.90;;;;;;4856878;29;20540;-81
2022/08/04 10:56:41;;;;;;;1.70;0.60;;;35.00;31.70;;;;;;4860949;29;20425;-83
2022/08/04 10:59:15;;;;;;;0.73;0.50;;;35.10;31.60;;;;;;4863933;29;20423;-84
2022/08/04 11:01:46;;;;;;;0.97;0.63;;;35.10;31.70;;;;;;4872440;29;20435;-82
2022/08/04 11:04:46;;;;;;;2.15;0.63;;;35.10;31.20;;;;;;4858684;29;20790;-80
2022/08/04 11:07:15;;;;;;;1.75;0.60;;;35.10;31.10;;;;;;4846880;29;20906;-82
2022/08/04 11:09:45;;;;;;;1.73;0.70;;;35.30;31.60;;;;;;4851330;29;20586;-84
2022/08/04 11:12:18;;;;;;;1.03;0.47;;;35.50;31.60;;;;;;4835622;29;20442;-85
2022/08/04 11:15:00;;;;;;;2.15;0.60;;;35.60;31.80;;;;;;4848409;29;20431;-81
2022/08/04 11:17:49;;;;;;;;;;;35.80;31.40;;;;;;4868237;29;20066;-83
2022/08/04 11:20:36;;;;;;;1.13;0.70;;;35.70;30.40;;;;;;4847440;29;20382;-82
2022/08/04 11:23:12;;;;;;;0.90;0.60;;;35.40;31.00;;;;;;4846292;29;20081;-87
2022/08/04 11:26:05;;;;;;;1.30;0.60;;;35.40;31.20;;;;;;4845860;29;20058;-82
2022/08/04 11:29:05;;;;;;;2.50;0.70;;;35.40;31.20;;;;;;4871259;29;20085;-82
2022/08/04 11:31:38;;;;;;;1.20;0.70;;;35.20;31.40;;;;;;4858870;29;20468;-86
2022/08/04 11:34:25;;;;;;;2.03;0.75;;;35.40;32.20;;;;;;4866252;29;20417;-86
2022/08/04 11:36:59;;;;;;;0.75;0.60;;;35.60;31.00;;;;;;4878120;29;20475;-84
2022/08/04 11:39:34;;;;;;;1.77;0.70;;;35.80;30.80;;;;;;4873426;29;20418;-82
2022/08/04 11:42:26;;;;;;;2.00;0.70;;;36.00;31.50;;;;;;4876363;29;20429;-82
2022/08/04 11:45:31;;;;;;;1.10;0.70;;;36.30;31.40;;;;;;4877017;29;20968;-86
2022/08/04 11:48:03;;;;;;;0.90;0.65;;;36.30;30.90;;;;;;4855146;29;20487;-86
2022/08/04 11:50:40;;;;;;;1.98;0.65;;;36.30;30.90;;;;;;4876701;29;20424;-82
2022/08/04 11:53:14;;;;;;;2.00;0.70;;;36.30;32.40;;;;;;4862956;29;20891;-81
2022/08/04 11:55:43;;;;;;;2.25;0.80;;;36.30;30.80;;;;;;4867371;29;20802;-83
2022/08/04 11:58:30;;;;;;;0.90;0.60;;;36.40;31.40;;;;;;4867019;29;20492;-85
2022/08/04 12:01:21;;;;;;;1.90;0.50;;;36.40;30.50;;;;;;4873621;29;20437;-82
2022/08/04 12:04:19;;;;;;;1.70;0.60;;;36.50;31.30;;;;;;4856083;29;20423;-82
2022/08/04 12:07:08;;;;;;;1.90;0.67;;;36.70;30.90;;;;;;4858438;29;20974;-82
2022/08/04 12:10:14;;;;;;;1.05;0.60;;;37.00;31.30;;;;;;4844995;29;20415;-86
2022/08/04 12:13:06;;;;;;;2.75;0.68;;;37.10;30.20;;;;;;4851178;29;20960;-83
2022/08/04 12:16:13;;;;;;;2.57;0.60;;;37.20;30.10;;;;;;4866421;29;20425;-86
2022/08/04 12:19:00;;;;;;;1.30;0.75;;;37.30;30.20;;;;;;4859723;29;20437;-86
2022/08/04 12:21:42;;;;;;;3.22;0.70;;;37.20;31.00;;;;;;4862808;29;20553;-86
2022/08/04 12:24:22;;;;;;;1.63;0.60;;;37.10;30.10;;;;;;4857387;29;20430;-87
2022/08/04 12:26:57;;;;;;;1.30;0.77;;;37.30;30.80;;;;;;4852010;29;20831;-82
2022/08/04 12:29:27;;;;;;;2.00;0.70;;;37.50;30.00;;;;;;4868010;29;20422;-87
2022/08/04 12:31:59;;;;;;;4.70;0.90;;;37.60;30.20;;;;;;4873484;29;20495;-82
2022/08/04 12:34:45;;;;;;;1.90;0.65;;;37.60;30.00;;;;;;4865875;29;20441;-82
2022/08/04 12:37:30;;;;;;;2.47;0.70;;;37.50;30.70;;;;;;4873676;29;20774;-83
2022/08/04 12:40:07;;;;;;;2.13;0.60;;;37.30;29.40;;;;;;4855475;29;20894;-82
2022/08/04 12:43:21;;;;;;;1.17;0.68;;;37.10;29.70;;;;;;4845886;29;20493;-82
2022/08/04 12:45:51;;;;;;;1.20;0.70;;;37.00;30.80;;;;;;4872496;29;20468;-83
2022/08/04 12:48:21;;;;;;;1.07;0.60;;;37.20;30.20;;;;;;4854082;29;20435;-82
2022/08/04 12:50:52;;;;;;;1.98;0.50;;;37.30;30.00;;;;;;4862548;29;20794;-86
2022/08/04 12:53:32;;;;;;;2.70;0.60;;;37.30;29.80;;;;;;4871170;29;20440;-83
2022/08/04 12:56:00;;;;;;;0.70;0.60;;;37.40;29.80;;;;;;4868211;29;20766;-83
2022/08/04 12:58:32;;;;;;;1.73;0.60;;;37.50;29.20;;;;;;4857688;29;20427;-82
2022/08/04 13:01:17;;;;;;;1.60;0.70;;;37.20;29.60;;;;;;4860812;29;20898;-87
2022/08/04 13:04:21;;;;;;;1.67;0.70;;;37.30;29.90;;;;;;4860371;29;20434;-87
2022/08/04 13:07:09;;;;;;;1.25;0.70;;;37.20;29.80;;;;;;4872439;29;20467;-82
2022/08/04 13:09:37;;;;;;;1.10;0.60;;;37.40;29.90;;;;;;4866654;29;20429;-87
2022/08/04 13:12:11;;;;;;;1.38;0.70;;;37.40;29.60;;;;;;4873687;29;20813;-83
2022/08/04 13:14:43;;;;;;;1.63;0.70;;;37.60;29.70;;;;;;4879400;29;20415;-83
2022/08/04 13:17:10;;;;;;;2.17;0.70;;;37.90;29.30;;;;;;4867279;29;20466;-81
2022/08/04 13:19:38;;;;;;;2.20;0.60;;;37.80;28.50;;;;;;4873971;29;20444;-82
2022/08/04 13:22:08;;;;;;;2.05;0.80;;;37.60;29.40;;;;;;4862819;29;20831;-86
2022/08/04 13:24:38;;;;;;;1.20;0.60;;;37.50;28.90;;;;;;4877165;29;20472;-83
2022/08/04 13:27:25;;;;;;;4.55;1.10;;;37.60;29.50;;;;;;4865723;29;20515;-87
2022/08/04 13:29:56;;;;;;;1.05;0.70;;;37.90;29.50;;;;;;4865824;29;20921;-83
2022/08/04 13:32:31;;;;;;;1.40;0.68;;;37.90;28.90;;;;;;4865502;29;20414;-86
2022/08/04 13:35:00;;;;;;;3.97;0.70;;;37.80;28.70;;;;;;4869992;29;20804;-86
2022/08/04 13:37:38;;;;;;;0.95;0.60;;;38.00;28.70;;;;;;4872684;29;20433;-83
2022/08/04 13:40:10;;;;;;;2.03;0.60;;;38.20;28.90;;;;;;4867558;29;20431;-83
2022/08/04 13:42:38;;;;;;;3.08;0.80;;;38.50;28.80;;;;;;4880394;29;20423;-84
2022/08/04 13:45:07;;;;;;;2.63;0.70;;;38.50;28.10;;;;;;4862263;29;20421;-80
2022/08/04 13:47:38;;;;;;;1.00;0.80;;;38.20;27.80;;;;;;4872383;29;20483;-81
2022/08/04 13:50:14;;;;;;;1.40;0.80;;;38.10;28.80;;;;;;4864351;29;20588;-83
2022/08/04 13:52:42;;;;;;;1.40;0.70;;;38.10;29.40;;;;;;4852485;29;20990;-83
2022/08/04 13:55:31;;;;;;;1.35;0.70;;;38.40;29.40;;;;;;4856479;29;20524;-83
2022/08/04 13:58:01;;;;;;;1.33;0.60;;;38.70;27.70;;;;;;4870585;29;20431;-82
2022/08/04 14:00:46;;;;;;;3.53;0.93;;;38.70;28.10;;;;;;4866998;29;20449;-83
2022/08/04 14:03:22;;;;;;;2.20;0.80;;;38.50;27.80;;;;;;4832750;29;20753;-83